createdAt,value
2022-09-03T00:02:45.581Z,22.00
2022-09-03T00:07:57.331Z,22.00
2022-09-03T00:13:06.276Z,21.90
2022-09-03T00:18:12.730Z,21.80
2022-09-03T00:23:22.361Z,21.70
2022-09-03T00:28:30.182Z,21.60
2022-09-03T00:33:35.116Z,21.50
2022-09-03T00:38:40.955Z,21.60
2022-09-03T00:44:15.916Z,21.50
2022-09-03T00:49:34.447Z,21.40
2022-09-03T00:54:46.057Z,20.90
2022-09-03T00:59:57.403Z,20.90
2022-09-03T01:05:10.517Z,21.00
2022-09-03T01:10:27.362Z,21.10
2022-09-03T01:15:44.273Z,21.00
2022-09-03T01:20:57.005Z,21.10
2022-09-03T01:26:24.903Z,21.00
2022-09-03T01:31:36.174Z,21.00
2022-09-03T01:36:45.344Z,20.70
2022-09-03T01:42:20.767Z,20.40
2022-09-03T01:47:50.355Z,20.30
2022-09-03T01:52:57.217Z,20.30
2022-09-03T01:58:03.758Z,20.40
2022-09-03T02:03:10.926Z,20.50
2022-09-03T02:08:13.884Z,20.40
2022-09-03T02:13:20.822Z,20.60
2022-09-03T02:18:27.922Z,20.50
2022-09-03T02:23:30.937Z,20.50
2022-09-03T02:28:34.651Z,20.40
2022-09-03T02:33:40.934Z,20.40
2022-09-03T02:38:46.855Z,20.40
2022-09-03T02:43:52.878Z,20.20
2022-09-03T02:48:57.196Z,20.40
2022-09-03T02:54:00.111Z,20.40
2022-09-03T02:59:04.094Z,20.10
2022-09-03T03:04:08.359Z,19.60
2022-09-03T03:09:11.241Z,19.90
2022-09-03T03:14:15.355Z,20.00
2022-09-03T03:19:19.604Z,20.00
2022-09-03T03:24:23.621Z,19.80
2022-09-03T03:29:26.734Z,19.50
2022-09-03T03:34:30.930Z,19.60
2022-09-03T03:39:33.880Z,19.80
2022-09-03T03:44:36.852Z,19.90
2022-09-03T03:49:41.252Z,19.90
2022-09-03T03:54:44.164Z,19.90
2022-09-03T03:59:47.157Z,19.70
2022-09-03T04:04:51.396Z,19.30
2022-09-03T04:09:54.258Z,19.70
2022-09-03T04:14:57.127Z,19.70
2022-09-03T04:20:01.536Z,19.80
2022-09-03T04:25:05.208Z,19.90
2022-09-03T04:30:09.373Z,19.90
2022-09-03T04:35:13.564Z,19.90
2022-09-03T04:40:16.716Z,19.90
2022-09-03T04:45:19.683Z,19.70
2022-09-03T04:50:23.922Z,19.30
2022-09-03T04:55:36.090Z,19.00
2022-09-03T05:00:39.375Z,19.30
2022-09-03T05:05:43.648Z,19.30
2022-09-03T05:10:46.514Z,19.30
2022-09-03T05:15:49.680Z,19.40
2022-09-03T05:21:00.904Z,19.30
2022-09-03T05:26:09.065Z,19.30
2022-09-03T05:31:16.475Z,19.40
2022-09-03T05:36:22.878Z,19.40
2022-09-03T05:41:26.583Z,19.40
2022-09-03T05:46:33.216Z,19.40
2022-09-03T05:51:39.486Z,19.40
2022-09-03T05:56:42.551Z,19.40
2022-09-03T06:01:51.624Z,19.70
2022-09-03T06:06:57.423Z,19.80
2022-09-03T06:12:00.338Z,19.90
2022-09-03T06:17:06.894Z,20.00
2022-09-03T06:22:11.146Z,19.70
2022-09-03T06:27:14.036Z,19.90
2022-09-03T06:32:17.396Z,20.00
2022-09-03T06:37:21.636Z,20.10
2022-09-03T06:42:24.648Z,20.20
2022-09-03T06:47:27.506Z,20.20
2022-09-03T06:52:31.746Z,20.30
2022-09-03T06:57:38.418Z,20.50
2022-09-03T07:02:44.840Z,20.50
2022-09-03T07:07:49.319Z,20.50
2022-09-03T07:12:52.193Z,20.50
2022-09-03T07:17:55.729Z,20.50
2022-09-03T07:22:59.976Z,20.60
2022-09-03T07:28:03.284Z,20.60
2022-09-03T07:33:07.291Z,20.60
2022-09-03T07:38:11.621Z,20.60
2022-09-03T07:43:14.575Z,20.50
2022-09-03T07:48:17.973Z,20.50
2022-09-03T07:53:22.755Z,20.40
2022-09-03T07:58:26.681Z,20.20
2022-09-03T08:03:29.589Z,20.10
2022-09-03T08:08:36.188Z,20.10
2022-09-03T08:13:40.832Z,20.30
2022-09-03T08:18:43.763Z,20.30
2022-09-03T08:23:50.077Z,20.50
2022-09-03T08:28:54.179Z,20.40
2022-09-03T08:33:58.771Z,20.30
2022-09-03T08:39:07.990Z,20.50
2022-09-03T08:44:22.994Z,20.70
2022-09-03T08:49:32.266Z,20.90
2022-09-03T08:54:37.830Z,21.10
2022-09-03T08:59:40.982Z,21.30
2022-09-03T09:04:58.430Z,21.30
2022-09-03T09:10:11.454Z,21.50
2022-09-03T09:15:20.944Z,21.60
2022-09-03T09:20:33.638Z,21.80
2022-09-03T09:25:46.917Z,21.80
2022-09-03T09:30:52.082Z,21.80
2022-09-03T09:35:55.675Z,21.80
2022-09-03T09:41:10.471Z,21.80
2022-09-03T09:46:15.934Z,21.70
2022-09-03T09:51:23.790Z,21.70
2022-09-03T09:56:28.084Z,21.60
2022-09-03T10:01:32.067Z,21.60
2022-09-03T10:06:57.019Z,21.80
2022-09-03T10:12:15.236Z,21.80
2022-09-03T10:17:24.985Z,22.20
2022-09-03T10:22:56.553Z,22.20
2022-09-03T10:28:02.103Z,22.30
2022-09-03T10:33:12.763Z,22.40
2022-09-03T10:38:22.934Z,22.40
2022-09-03T10:43:46.571Z,22.50
2022-09-03T10:49:11.116Z,22.50
2022-09-03T10:54:32.501Z,22.80
2022-09-03T10:59:52.178Z,22.80
2022-09-03T11:04:59.560Z,22.90
2022-09-03T11:10:13.388Z,23.00
2022-09-03T11:15:27.921Z,23.00
2022-09-03T11:20:32.412Z,23.00
2022-09-03T11:25:42.214Z,23.10
2022-09-03T11:31:06.154Z,23.20
2022-09-03T11:36:09.113Z,23.30
2022-09-03T11:41:26.199Z,23.20
2022-09-03T11:46:33.154Z,23.20
2022-09-03T11:51:37.830Z,23.10
2022-09-03T11:56:42.821Z,22.80
2022-09-03T12:01:54.509Z,22.60
2022-09-03T12:07:17.582Z,22.60
2022-09-03T12:12:40.233Z,22.80
2022-09-03T12:18:13.126Z,22.90
2022-09-03T12:23:28.497Z,23.20
2022-09-03T12:28:36.179Z,23.30
2022-09-03T12:33:42.830Z,23.30
2022-09-03T12:39:10.327Z,23.50
2022-09-03T12:44:13.406Z,23.60
2022-09-03T12:49:33.664Z,23.80
2022-09-03T12:54:45.836Z,24.00
2022-09-03T12:59:56.783Z,24.10
2022-09-03T13:05:02.063Z,24.00
2022-09-03T13:10:07.865Z,23.80
2022-09-03T13:15:19.705Z,23.60
2022-09-03T13:20:33.985Z,23.60
2022-09-03T13:25:49.003Z,23.70
2022-09-03T13:30:58.459Z,23.50
2022-09-03T13:36:09.970Z,23.40
2022-09-03T13:41:20.386Z,23.40
2022-09-03T13:46:30.806Z,23.50
2022-09-03T13:51:49.763Z,23.50
2022-09-03T13:56:58.772Z,23.60
2022-09-03T14:02:12.122Z,23.60
2022-09-03T14:07:23.143Z,23.70
2022-09-03T14:12:38.541Z,23.70
2022-09-03T14:17:44.638Z,23.70
2022-09-03T14:22:56.666Z,23.80
2022-09-03T14:28:16.079Z,23.70
2022-09-03T14:33:25.075Z,23.60
2022-09-03T14:38:52.208Z,23.40
2022-09-03T14:44:20.113Z,23.50
2022-09-03T14:49:42.478Z,23.40
2022-09-03T14:55:02.412Z,23.60
2022-09-03T15:00:18.421Z,23.60
2022-09-03T15:06:02.824Z,23.80
2022-09-03T15:11:17.165Z,23.90
2022-09-03T15:16:34.363Z,24.30
2022-09-03T15:21:53.397Z,24.40
2022-09-03T15:27:12.016Z,24.60
2022-09-03T15:32:43.369Z,24.40
2022-09-03T15:37:49.120Z,24.50
2022-09-03T15:42:57.914Z,24.60
2022-09-03T15:48:10.231Z,24.60
2022-09-03T15:53:24.355Z,24.80
2022-09-03T15:58:35.139Z,24.70
2022-09-03T16:03:46.805Z,24.80
2022-09-03T16:08:56.538Z,25.00
2022-09-03T16:14:09.331Z,25.20
2022-09-03T16:19:18.115Z,25.20
2022-09-03T16:24:25.842Z,25.30
2022-09-03T16:29:31.908Z,25.20
2022-09-03T16:34:49.664Z,25.30
2022-09-03T16:40:01.032Z,25.10
2022-09-03T16:45:19.067Z,25.20
2022-09-03T16:50:32.354Z,25.20
2022-09-03T16:56:00.912Z,25.40
2022-09-03T17:01:17.933Z,25.50
2022-09-03T17:06:37.288Z,25.30
2022-09-03T17:11:53.954Z,25.10
2022-09-03T17:17:10.278Z,25.00
2022-09-03T17:22:23.553Z,25.10
2022-09-03T17:27:49.114Z,25.00
2022-09-03T17:33:37.608Z,24.90
2022-09-03T17:39:01.531Z,24.80
2022-09-03T17:44:13.618Z,24.60
2022-09-03T17:49:24.355Z,24.60
2022-09-03T17:54:41.141Z,24.60
2022-09-03T17:59:53.004Z,24.50
2022-09-03T18:05:01.598Z,24.40
2022-09-03T18:10:17.152Z,24.20
2022-09-03T18:15:26.527Z,24.20
2022-09-03T18:21:21.436Z,24.00
2022-09-03T18:26:44.625Z,23.50
2022-09-03T18:32:05.027Z,23.60
2022-09-03T18:37:27.886Z,23.60
2022-09-03T18:43:02.637Z,23.30
2022-09-03T18:48:31.527Z,23.50
2022-09-03T18:54:04.160Z,23.60
2022-09-03T18:59:39.372Z,23.60
2022-09-03T19:05:17.586Z,23.50
2022-09-03T19:10:44.529Z,23.20
2022-09-03T19:16:15.755Z,23.00
2022-09-03T19:21:46.406Z,23.10
2022-09-03T19:27:50.060Z,23.00
2022-09-03T19:33:05.251Z,23.00
2022-09-03T19:38:34.720Z,22.60
2022-09-03T19:44:11.057Z,22.50
2022-09-03T19:49:40.028Z,22.40
2022-09-03T19:55:00.433Z,22.40
2022-09-03T20:00:36.205Z,22.30
2022-09-03T20:05:57.194Z,22.40
2022-09-03T20:11:01.231Z,22.50
2022-09-03T20:16:13.485Z,22.30
2022-09-03T20:21:23.531Z,22.30
2022-09-03T20:26:43.025Z,22.20
2022-09-03T20:31:54.920Z,22.30
2022-09-03T20:37:03.638Z,22.30
2022-09-03T20:42:22.545Z,22.20
2022-09-03T20:47:43.152Z,22.10
2022-09-03T20:52:54.711Z,22.00
2022-09-03T20:58:06.560Z,21.90
2022-09-03T21:03:17.004Z,22.00
2022-09-03T21:08:29.798Z,21.90
2022-09-03T21:13:40.431Z,21.80
2022-09-03T21:18:58.948Z,21.20
2022-09-03T21:24:08.060Z,21.50
2022-09-03T21:29:21.447Z,21.50
2022-09-03T21:34:31.636Z,21.40
2022-09-03T21:39:42.361Z,21.40
2022-09-03T21:44:54.753Z,21.40
2022-09-03T21:50:06.795Z,21.30
2022-09-03T21:55:22.306Z,20.90
2022-09-03T22:00:32.473Z,21.00
2022-09-03T22:05:44.910Z,21.10
2022-09-03T22:10:58.042Z,21.10
2022-09-03T22:16:13.263Z,21.00
2022-09-03T22:21:23.436Z,21.10
2022-09-03T22:26:38.227Z,21.00
2022-09-03T22:31:59.143Z,21.00
2022-09-03T22:37:06.753Z,21.00
2022-09-03T22:42:24.198Z,20.90
2022-09-03T22:47:37.290Z,20.80
2022-09-03T22:52:44.711Z,20.90
2022-09-03T22:57:57.225Z,20.90
2022-09-03T23:03:05.730Z,20.80
2022-09-03T23:08:15.245Z,20.70
2022-09-03T23:13:21.099Z,20.70
2022-09-03T23:18:28.442Z,20.70
2022-09-03T23:23:37.842Z,20.70
2022-09-03T23:28:45.287Z,20.70
2022-09-03T23:33:50.112Z,20.70
2022-09-03T23:39:03.711Z,20.60
2022-09-03T23:44:24.042Z,20.60
2022-09-03T23:49:39.006Z,20.60
2022-09-03T23:54:48.433Z,20.60
